createdAt,value
2024-01-04T00:01:16.987Z,95820.81
2024-01-04T00:03:44.451Z,95830.25
2024-01-04T00:06:12.306Z,95828.97
2024-01-04T00:08:39.583Z,95821.56
2024-01-04T00:11:07.661Z,95816.66
2024-01-04T00:13:35.116Z,95823.00
2024-01-04T00:16:02.388Z,95819.72
2024-01-04T00:18:29.707Z,95815.03
2024-01-04T00:20:57.091Z,95823.91
2024-01-04T00:23:24.229Z,95821.91
2024-01-04T00:25:51.311Z,95820.06
2024-01-04T00:28:18.665Z,95836.56
2024-01-04T00:30:46.024Z,95827.88
2024-01-04T00:33:13.210Z,95828.03
2024-01-04T00:35:40.481Z,95824.75
2024-01-04T00:38:08.189Z,95832.38
2024-01-04T00:40:36.401Z,95830.56
2024-01-04T00:43:05.337Z,95822.59
2024-01-04T00:45:32.565Z,95821.47
2024-01-04T00:47:59.702Z,95825.09
2024-01-04T00:50:26.965Z,95819.28
2024-01-04T00:53:03.127Z,95829.06
2024-01-04T00:55:33.516Z,95821.81
2024-01-04T00:58:00.669Z,95830.84
2024-01-04T01:00:27.758Z,95834.47
2024-01-04T01:02:55.047Z,95821.22
2024-01-04T01:05:22.332Z,95827.56
2024-01-04T01:07:49.416Z,95830.44
2024-01-04T01:10:16.595Z,95824.28
2024-01-04T01:12:43.736Z,95831.19
2024-01-04T01:15:11.038Z,95848.94
2024-01-04T01:17:38.324Z,95848.94
2024-01-04T01:20:06.035Z,95847.13
2024-01-04T01:22:33.139Z,95849.44
2024-01-04T01:25:00.356Z,95847.66
2024-01-04T01:27:27.435Z,95851.81
2024-01-04T01:29:54.724Z,95845.09
2024-01-04T01:32:21.844Z,95850.69
2024-01-04T01:34:49.066Z,95855.78
2024-01-04T01:37:16.772Z,95841.78
2024-01-04T01:39:43.862Z,95844.66
2024-01-04T01:42:11.121Z,95842.66
2024-01-04T01:44:38.340Z,95846.09
2024-01-04T01:47:05.872Z,95850.47
2024-01-04T01:49:33.314Z,95843.75
2024-01-04T01:52:00.590Z,95842.31
2024-01-04T01:54:27.691Z,95850.31
2024-01-04T01:56:57.712Z,95853.75
2024-01-04T01:59:27.719Z,95855.75
2024-01-04T02:01:55.396Z,95844.84
2024-01-04T02:04:23.748Z,95846.09
2024-01-04T02:06:50.966Z,95850.31
2024-01-04T02:09:18.141Z,95857.19
2024-01-04T02:11:46.703Z,95864.06
2024-01-04T02:14:13.871Z,95853.19
2024-01-04T02:16:41.207Z,95868.22
2024-01-04T02:19:09.699Z,95858.78
2024-01-04T02:21:38.637Z,95869.69
2024-01-04T02:24:08.805Z,95868.22
2024-01-04T02:26:36.023Z,95875.13
2024-01-04T02:29:03.209Z,95880.00
2024-01-04T02:31:30.364Z,95877.28
2024-01-04T02:33:57.705Z,95873.84
2024-01-04T02:36:26.190Z,95881.84
2024-01-04T02:38:53.448Z,95859.34
2024-01-04T02:41:20.595Z,95864.63
2024-01-04T02:43:47.676Z,95862.44
2024-01-04T02:46:14.826Z,95866.97
2024-01-04T02:48:42.314Z,95866.97
2024-01-04T02:51:09.778Z,95854.81
2024-01-04T02:53:37.143Z,95872.44
2024-01-04T02:56:05.374Z,95859.38
2024-01-04T02:58:33.348Z,95865.53
2024-01-04T03:01:00.577Z,95864.44
2024-01-04T03:03:27.762Z,95864.44
2024-01-04T03:05:55.619Z,95855.56
2024-01-04T03:08:22.823Z,95843.38
2024-01-04T03:10:50.010Z,95843.38
2024-01-04T03:13:17.098Z,95840.66
2024-01-04T03:15:44.207Z,95840.34
2024-01-04T03:18:11.629Z,95850.50
2024-01-04T03:20:39.050Z,95846.34
2024-01-04T03:23:06.187Z,95840.19
2024-01-04T03:25:33.733Z,95848.50
2024-01-04T03:28:00.970Z,95868.81
2024-01-04T03:30:28.451Z,95859.56
2024-01-04T03:32:55.769Z,95866.69
2024-01-04T03:35:22.990Z,95858.00
2024-01-04T03:37:50.233Z,95856.91
2024-01-04T03:40:17.396Z,95859.13
2024-01-04T03:42:44.552Z,95860.75
2024-01-04T03:45:12.310Z,95849.00
2024-01-04T03:47:39.502Z,95850.81
2024-01-04T03:50:07.551Z,95859.91
2024-01-04T03:52:34.922Z,95862.25
2024-01-04T03:55:02.045Z,95866.78
2024-01-04T03:57:29.865Z,95865.69
2024-01-04T03:59:57.029Z,95862.81
2024-01-04T04:02:24.266Z,95868.25
2024-01-04T04:04:51.342Z,95859.22
2024-01-04T04:07:18.550Z,95872.25
2024-01-04T04:09:45.829Z,95869.53
2024-01-04T04:12:13.000Z,95873.13
2024-01-04T04:14:42.183Z,95880.75
2024-01-04T04:17:09.304Z,95863.19
2024-01-04T04:19:36.550Z,95872.78
2024-01-04T04:22:03.767Z,95875.66
2024-01-04T04:24:31.689Z,95882.72
2024-01-04T04:26:58.974Z,95888.53
2024-01-04T04:29:26.107Z,95876.38
2024-01-04T04:31:54.810Z,95890.69
2024-01-04T04:34:22.092Z,95890.84
2024-01-04T04:36:49.480Z,95899.72
2024-01-04T04:39:16.698Z,95908.44
2024-01-04T04:41:43.849Z,95890.69
2024-01-04T04:44:10.938Z,95903.72
2024-01-04T04:46:38.047Z,95924.75
2024-01-04T04:49:05.295Z,95919.31
2024-01-04T04:51:32.545Z,95918.59
2024-01-04T04:53:59.990Z,95920.59
2024-01-04T04:56:27.153Z,95921.88
2024-01-04T04:58:54.238Z,95925.13
2024-01-04T05:01:21.373Z,95927.69
2024-01-04T05:03:49.614Z,95924.97
2024-01-04T05:06:17.303Z,95929.84
2024-01-04T05:08:45.302Z,95936.72
2024-01-04T05:11:12.510Z,95933.47
2024-01-04T05:13:39.622Z,95935.84
2024-01-04T05:16:07.122Z,95939.44
2024-01-04T05:18:34.440Z,95951.38
2024-01-04T05:21:01.854Z,95946.88
2024-01-04T05:23:29.043Z,95959.91
2024-01-04T05:25:56.177Z,95948.31
2024-01-04T05:28:23.994Z,95963.53
2024-01-04T05:30:51.179Z,95969.13
2024-01-04T05:33:18.757Z,95976.75
2024-01-04T05:35:47.075Z,95970.06
2024-01-04T05:38:14.222Z,95971.31
2024-01-04T05:40:41.349Z,95984.19
2024-01-04T05:43:08.427Z,95987.09
2024-01-04T05:45:35.542Z,95991.81
2024-01-04T05:48:02.704Z,95999.78
2024-01-04T05:50:29.885Z,95993.97
2024-01-04T05:52:59.346Z,96005.03
2024-01-04T05:55:26.566Z,96016.13
2024-01-04T05:57:53.812Z,96011.94
2024-01-04T06:00:21.107Z,96028.06
2024-01-04T06:02:48.734Z,96028.63
2024-01-04T06:05:16.054Z,96034.78
2024-01-04T06:07:43.305Z,96049.81
2024-01-04T06:10:10.422Z,96048.53
2024-01-04T06:12:37.501Z,96053.47
2024-01-04T06:15:23.386Z,96063.78
2024-01-04T06:18:10.969Z,96067.94
2024-01-04T06:20:58.472Z,96076.09
2024-01-04T06:23:45.977Z,96076.66
2024-01-04T06:26:19.198Z,96082.44
2024-01-04T06:28:46.609Z,96089.69
2024-01-04T06:31:14.021Z,96086.97
2024-01-04T06:33:41.399Z,96090.78
2024-01-04T06:36:08.966Z,96098.94
2024-01-04T06:38:36.619Z,96096.22
2024-01-04T06:41:04.998Z,96102.38
2024-01-04T06:43:32.242Z,96098.41
2024-01-04T06:45:59.441Z,96098.94
2024-01-04T06:48:28.513Z,96119.41
2024-01-04T06:50:56.023Z,96116.88
2024-01-04T06:53:23.159Z,96122.31
2024-01-04T06:55:50.285Z,96116.69
2024-01-04T06:58:17.513Z,96121.59
2024-01-04T07:00:44.815Z,96133.19
2024-01-04T07:03:12.172Z,96131.91
2024-01-04T07:05:39.489Z,96140.81
2024-01-04T07:08:06.932Z,96142.97
2024-01-04T07:10:35.333Z,96140.47
2024-01-04T07:13:02.562Z,96143.91
2024-01-04T07:15:29.963Z,96150.97
2024-01-04T07:17:57.314Z,96146.97
2024-01-04T07:20:26.261Z,96158.56
2024-01-04T07:22:54.430Z,96151.34
2024-01-04T07:25:26.481Z,96158.22
2024-01-04T07:27:53.559Z,96157.69
2024-01-04T07:30:21.236Z,96168.03
2024-01-04T07:32:48.479Z,96186.34
2024-01-04T07:35:17.946Z,96182.16
2024-01-04T07:37:45.876Z,96178.72
2024-01-04T07:40:13.640Z,96190.31
2024-01-04T07:42:42.921Z,96188.31
2024-01-04T07:45:10.561Z,96191.03
2024-01-04T07:47:38.784Z,96194.50
2024-01-04T07:50:06.609Z,96185.06
2024-01-04T07:52:33.992Z,96199.94
2024-01-04T07:55:03.938Z,96199.19
2024-01-04T07:57:33.263Z,96198.28
2024-01-04T08:00:01.719Z,96199.75
2024-01-04T08:02:33.014Z,96194.84
2024-01-04T08:05:02.431Z,96194.31
2024-01-04T08:07:29.892Z,96198.47
2024-01-04T08:09:59.030Z,96201.56
2024-01-04T08:12:26.197Z,96205.00
2024-01-04T08:14:59.083Z,96200.81
2024-01-04T08:17:26.382Z,96228.22
2024-01-04T08:19:57.038Z,96250.16
2024-01-04T08:22:24.326Z,96251.06
2024-01-04T08:24:51.498Z,96243.81
2024-01-04T08:27:21.566Z,96250.91
2024-01-04T08:29:50.100Z,96249.09
2024-01-04T08:32:18.400Z,96250.72
2024-01-04T08:34:45.591Z,96267.25
2024-01-04T08:37:14.816Z,96251.66
2024-01-04T08:39:42.537Z,96262.34
2024-01-04T08:42:09.749Z,96262.88
2024-01-04T08:44:36.946Z,96270.31
2024-01-04T08:47:04.155Z,96281.56
2024-01-04T08:49:31.476Z,96284.47
2024-01-04T08:51:58.705Z,96283.19
2024-01-04T08:54:25.952Z,96270.13
2024-01-04T08:56:53.120Z,96267.59
2024-01-04T08:59:20.432Z,96262.34
2024-01-04T09:01:47.622Z,96265.97
2024-01-04T09:04:14.820Z,96266.16
2024-01-04T09:06:41.977Z,96282.88
2024-01-04T09:09:09.334Z,96279.94
2024-01-04T09:11:41.351Z,96278.31
2024-01-04T09:14:12.993Z,96290.28
2024-01-04T09:16:41.439Z,96287.00
2024-01-04T09:19:08.882Z,96288.06
2024-01-04T09:21:36.085Z,96290.41
2024-01-04T09:24:03.489Z,96283.34
2024-01-04T09:26:30.792Z,96294.75
2024-01-04T09:28:57.924Z,96294.00
2024-01-04T09:31:28.659Z,96289.84
2024-01-04T09:33:58.045Z,96297.63
2024-01-04T09:36:25.203Z,96302.69
2024-01-04T09:38:52.586Z,96312.28
2024-01-04T09:41:23.897Z,96305.41
2024-01-04T09:43:56.173Z,96314.84
2024-01-04T09:46:26.058Z,96319.53
2024-01-04T09:48:59.786Z,96320.28
2024-01-04T09:51:28.900Z,96325.91
2024-01-04T09:53:56.968Z,96324.63
2024-01-04T09:56:24.771Z,96330.81
2024-01-04T09:58:54.209Z,96344.41
2024-01-04T10:01:24.871Z,96340.44
2024-01-04T10:03:54.006Z,96350.75
2024-01-04T10:06:24.112Z,96361.63
2024-01-04T10:08:58.074Z,96356.00
2024-01-04T10:11:30.921Z,96357.25
2024-01-04T10:13:58.401Z,96353.81
2024-01-04T10:16:25.573Z,96365.22
2024-01-04T10:18:53.562Z,96357.44
2024-01-04T10:21:20.833Z,96358.34
2024-01-04T10:23:57.908Z,96365.22
2024-01-04T10:26:25.144Z,96363.97
2024-01-04T10:28:56.431Z,96377.03
2024-01-04T10:31:24.032Z,96373.78
2024-01-04T10:34:01.348Z,96382.84
2024-01-04T10:36:34.012Z,96372.16
2024-01-04T10:39:04.377Z,96377.06
2024-01-04T10:41:32.012Z,96388.16
2024-01-04T10:44:09.004Z,96382.16
2024-01-04T10:46:37.206Z,96385.63
2024-01-04T10:49:04.870Z,96382.16
2024-01-04T10:51:32.948Z,96385.06
2024-01-04T10:54:01.586Z,96382.34
2024-01-04T10:56:36.659Z,96400.13
2024-01-04T10:59:06.986Z,96389.97
2024-01-04T11:01:34.308Z,96396.84
2024-01-04T11:04:01.747Z,96395.63
2024-01-04T11:06:29.541Z,96398.72
2024-01-04T11:08:57.394Z,96415.22
2024-01-04T11:11:28.145Z,96409.03
2024-01-04T11:13:55.292Z,96399.44
2024-01-04T11:16:28.440Z,96411.59
2024-01-04T11:19:21.491Z,96395.25
2024-01-04T11:22:05.572Z,96399.97
2024-01-04T11:24:42.678Z,96400.34
2024-01-04T11:27:13.594Z,96394.72
2024-01-04T11:29:42.327Z,96401.44
2024-01-04T11:32:10.340Z,96405.59
2024-01-04T11:34:40.253Z,96400.34
2024-01-04T11:37:23.100Z,96403.06
2024-01-04T11:40:06.542Z,96408.50
2024-01-04T11:42:35.073Z,96405.78
2024-01-04T11:45:05.822Z,96417.41
2024-01-04T11:47:40.332Z,96411.22
2024-01-04T11:50:27.398Z,96415.41
2024-01-04T11:53:07.683Z,96419.59
2024-01-04T11:55:37.267Z,96413.44
2024-01-04T11:58:04.604Z,96409.97
2024-01-04T12:00:36.155Z,96424.81
2024-01-04T12:03:15.408Z,96429.34
2024-01-04T12:05:51.950Z,96431.34
2024-01-04T12:08:32.945Z,96437.88
2024-01-04T12:11:06.418Z,96447.31
2024-01-04T12:13:33.590Z,96444.38
2024-01-04T12:16:00.730Z,96440.00
2024-01-04T12:18:30.364Z,96446.31
2024-01-04T12:21:07.482Z,96451.19
2024-01-04T12:23:42.184Z,96446.28
2024-01-04T12:26:09.491Z,96461.84
2024-01-04T12:28:36.738Z,96465.66
2024-01-04T12:31:04.442Z,96463.66
2024-01-04T12:33:32.595Z,96466.72
2024-01-04T12:36:03.399Z,96466.50
2024-01-04T12:38:30.621Z,96456.38
2024-01-04T12:40:57.789Z,96472.16
2024-01-04T12:43:26.921Z,96472.00
2024-01-04T12:46:04.032Z,96473.13
2024-01-04T12:48:31.749Z,96497.06
2024-01-04T12:51:18.201Z,96487.66
2024-01-04T12:53:48.704Z,96493.63
2024-01-04T12:56:16.972Z,96494.34
2024-01-04T12:58:45.929Z,96511.41
2024-01-04T13:01:13.172Z,96510.47
2024-01-04T13:03:40.399Z,96497.63
2024-01-04T13:06:07.636Z,96507.75
2024-01-04T13:08:34.768Z,96513.94
2024-01-04T13:11:03.772Z,96518.63
2024-01-04T13:13:33.222Z,96522.63
2024-01-04T13:16:01.526Z,96524.06
2024-01-04T13:18:29.121Z,96516.47
2024-01-04T13:20:59.836Z,96520.81
2024-01-04T13:23:27.566Z,96519.38
2024-01-04T13:25:54.695Z,96518.22
2024-01-04T13:28:21.890Z,96520.03
2024-01-04T13:30:49.075Z,96525.47
2024-01-04T13:33:16.402Z,96532.72
2024-01-04T13:35:43.857Z,96531.59
2024-01-04T13:38:10.961Z,96531.38
2024-01-04T13:40:38.073Z,96532.97
2024-01-04T13:43:05.223Z,96550.34
2024-01-04T13:45:32.419Z,96544.19
2024-01-04T13:47:59.852Z,96564.69
2024-01-04T13:50:27.221Z,96563.75
2024-01-04T13:52:54.464Z,96567.75
2024-01-04T13:55:21.640Z,96584.38
2024-01-04T13:57:48.925Z,96570.03
2024-01-04T14:00:16.439Z,96570.56
2024-01-04T14:02:44.150Z,96592.31
2024-01-04T14:05:11.450Z,96593.06
2024-01-04T14:07:38.593Z,96593.25
2024-01-04T14:10:08.841Z,96598.16
2024-01-04T14:12:36.008Z,96604.31
2024-01-04T14:15:06.003Z,96605.03
2024-01-04T14:17:33.195Z,96597.41
2024-01-04T14:20:02.110Z,96614.47
2024-01-04T14:22:30.199Z,96617.19
2024-01-04T14:24:57.840Z,96617.19
2024-01-04T14:27:25.234Z,96616.13
2024-01-04T14:29:54.303Z,96609.44
2024-01-04T14:32:21.587Z,96612.16
2024-01-04T14:34:48.882Z,96618.50
2024-01-04T14:37:16.058Z,96621.44
2024-01-04T14:39:43.133Z,96629.06
2024-01-04T14:42:10.414Z,96634.50
2024-01-04T14:44:40.596Z,96632.72
2024-01-04T14:47:07.946Z,96630.91
2024-01-04T14:49:43.320Z,96638.34
2024-01-04T14:52:12.588Z,96645.78
2024-01-04T14:54:43.795Z,96646.63
2024-01-04T14:57:11.214Z,96652.81
2024-01-04T14:59:38.765Z,96667.44
2024-01-04T15:02:07.155Z,96673.41
2024-01-04T15:04:34.330Z,96664.84
2024-01-04T15:07:04.399Z,96685.13
2024-01-04T15:09:32.824Z,96681.16
2024-01-04T15:11:59.934Z,96680.75
2024-01-04T15:14:27.299Z,96676.59
2024-01-04T15:16:57.311Z,96668.97
2024-01-04T15:19:24.604Z,96672.41
2024-01-04T15:21:52.875Z,96691.22
2024-01-04T15:24:20.262Z,96700.13
2024-01-04T15:26:47.506Z,96702.84
2024-01-04T15:29:14.688Z,96713.50
2024-01-04T15:31:42.015Z,96717.66
2024-01-04T15:34:10.552Z,96708.78
2024-01-04T15:36:38.258Z,96725.44
2024-01-04T15:39:06.093Z,96725.72
2024-01-04T15:41:33.211Z,96729.72
2024-01-04T15:44:01.342Z,96730.97
2024-01-04T15:46:28.688Z,96737.13
2024-01-04T15:48:55.853Z,96720.09
2024-01-04T15:51:23.309Z,96730.22
2024-01-04T15:53:50.919Z,96735.13
2024-01-04T15:56:18.936Z,96737.34
2024-01-04T15:58:46.114Z,96736.09
2024-01-04T16:01:13.582Z,96738.59
2024-01-04T16:03:41.288Z,96749.25
2024-01-04T16:06:09.045Z,96748.53
2024-01-04T16:08:36.313Z,96755.94
2024-01-04T16:11:03.874Z,96753.00
2024-01-04T16:13:32.438Z,96756.25
2024-01-04T16:15:59.537Z,96753.53
2024-01-04T16:18:28.528Z,96758.25
2024-01-04T16:20:55.732Z,96768.34
2024-01-04T16:23:22.837Z,96763.97
2024-01-04T16:25:50.373Z,96776.94
2024-01-04T16:28:22.015Z,96768.66
2024-01-04T16:30:50.256Z,96779.75
2024-01-04T16:33:17.814Z,96780.91
2024-01-04T16:35:45.567Z,96777.34
2024-01-04T16:38:12.870Z,96781.28
2024-01-04T16:40:40.220Z,96790.13
2024-01-04T16:43:08.213Z,96802.63
2024-01-04T16:45:36.469Z,96802.94
2024-01-04T16:48:04.301Z,96808.22
2024-01-04T16:50:31.605Z,96811.25
2024-01-04T16:52:58.917Z,96809.56
2024-01-04T16:55:26.008Z,96810.13
2024-01-04T16:57:53.198Z,96816.59
2024-01-04T17:00:20.535Z,96827.53
2024-01-04T17:02:47.710Z,96828.84
2024-01-04T17:05:15.370Z,96825.50
2024-01-04T17:07:42.476Z,96827.97
2024-01-04T17:10:09.987Z,96842.03
2024-01-04T17:12:37.139Z,96846.75
2024-01-04T17:15:07.356Z,96847.78
2024-01-04T17:17:34.812Z,96846.31
2024-01-04T17:20:02.614Z,96856.69
2024-01-04T17:22:31.237Z,96858.91
2024-01-04T17:24:58.395Z,96869.75
2024-01-04T17:27:27.399Z,96868.59
2024-01-04T17:29:58.569Z,96867.91
2024-01-04T17:32:25.966Z,96875.88
2024-01-04T17:34:53.555Z,96885.78
2024-01-04T17:37:20.921Z,96879.09
2024-01-04T17:39:48.125Z,96885.56
2024-01-04T17:42:18.394Z,96886.78
2024-01-04T17:44:45.753Z,96888.03
2024-01-04T17:47:13.338Z,96893.00
2024-01-04T17:49:41.548Z,96891.09
2024-01-04T17:52:09.759Z,96901.91
2024-01-04T17:54:38.741Z,96901.19
2024-01-04T17:57:06.568Z,96906.91
2024-01-04T17:59:34.806Z,96907.63
2024-01-04T18:02:03.367Z,96905.72
2024-01-04T18:04:30.536Z,96906.72
2024-01-04T18:06:57.717Z,96909.97
2024-01-04T18:09:24.904Z,96914.19
2024-01-04T18:11:52.116Z,96918.69
2024-01-04T18:14:19.362Z,96925.84
2024-01-04T18:16:46.698Z,96916.00
2024-01-04T18:19:14.292Z,96927.13
2024-01-04T18:21:42.266Z,96928.91
2024-01-04T18:24:09.845Z,96940.72
2024-01-04T18:26:36.999Z,96949.63
2024-01-04T18:29:04.525Z,96949.16
2024-01-04T18:31:31.696Z,96949.19
2024-01-04T18:33:58.939Z,96961.56
2024-01-04T18:36:26.282Z,96967.97
2024-01-04T18:39:01.025Z,96974.41
2024-01-04T18:41:31.392Z,96971.25
2024-01-04T18:43:58.789Z,96967.34
2024-01-04T18:46:25.915Z,96970.09
2024-01-04T18:48:53.956Z,96978.47
2024-01-04T18:51:22.791Z,96976.56
2024-01-04T18:53:50.126Z,96976.34
2024-01-04T18:56:17.452Z,96979.81
2024-01-04T18:58:44.554Z,96983.53
2024-01-04T19:01:11.690Z,96986.50
2024-01-04T19:03:39.145Z,96987.97
2024-01-04T19:06:07.646Z,96979.88
2024-01-04T19:08:34.822Z,96986.75
2024-01-04T19:11:02.282Z,96982.78
2024-01-04T19:13:29.421Z,96986.25
2024-01-04T19:16:00.367Z,96989.91
2024-01-04T19:18:28.464Z,96988.66
2024-01-04T19:20:56.486Z,96985.50
2024-01-04T19:23:23.622Z,96995.81
2024-01-04T19:25:50.730Z,97004.66
2024-01-04T19:28:17.871Z,97007.09
2024-01-04T19:30:45.244Z,97012.00
2024-01-04T19:33:12.601Z,97016.94
2024-01-04T19:35:39.742Z,97015.91
2024-01-04T19:38:09.091Z,97014.22
2024-01-04T19:40:36.294Z,97014.94
2024-01-04T19:43:03.649Z,97013.72
2024-01-04T19:45:30.855Z,97015.41
2024-01-04T19:47:58.247Z,97019.34
2024-01-04T19:50:28.537Z,97022.56
2024-01-04T19:52:57.404Z,97025.28
2024-01-04T19:55:24.600Z,97025.50
2024-01-04T19:57:51.713Z,97027.25
2024-01-04T20:00:19.227Z,97032.88
2024-01-04T20:02:46.865Z,97023.81
2024-01-04T20:05:14.067Z,97034.63
2024-01-04T20:07:41.217Z,97042.75
2024-01-04T20:10:08.709Z,97036.59
2024-01-04T20:12:36.047Z,97038.06
2024-01-04T20:15:03.362Z,97043.97
2024-01-04T20:17:31.447Z,97037.84
2024-01-04T20:19:58.861Z,97040.53
2024-01-04T20:22:26.102Z,97047.41
2024-01-04T20:24:53.908Z,97035.59
2024-01-04T20:27:21.223Z,97034.13
2024-01-04T20:29:48.520Z,97047.94
2024-01-04T20:32:17.276Z,97048.16
2024-01-04T20:34:45.721Z,97053.81
2024-01-04T20:37:14.928Z,97052.13
2024-01-04T20:39:42.109Z,97047.94
2024-01-04T20:42:09.326Z,97046.69
2024-01-04T20:44:36.493Z,97034.19
2024-01-04T20:47:03.723Z,97038.88
2024-01-04T20:49:31.008Z,97040.63
2024-01-04T20:51:58.420Z,97053.19
2024-01-04T20:54:25.685Z,97048.28
2024-01-04T20:56:52.876Z,97048.28
2024-01-04T20:59:20.300Z,97054.44
2024-01-04T21:01:47.843Z,97050.25
2024-01-04T21:04:15.491Z,97042.66
2024-01-04T21:06:46.291Z,97050.28
2024-01-04T21:09:16.020Z,97047.81
2024-01-04T21:11:43.336Z,97049.03
2024-01-04T21:14:10.630Z,97050.00
2024-01-04T21:16:37.706Z,97051.72
2024-01-04T21:19:05.330Z,97054.69
2024-01-04T21:21:32.646Z,97053.72
2024-01-04T21:24:00.634Z,97063.31
2024-01-04T21:26:28.242Z,97053.47
2024-01-04T21:28:55.542Z,97054.19
2024-01-04T21:31:23.066Z,97063.03
2024-01-04T21:33:50.324Z,97057.63
2024-01-04T21:36:17.786Z,97061.56
2024-01-04T21:38:45.387Z,97058.13
2024-01-04T21:41:12.684Z,97055.66
2024-01-04T21:43:39.806Z,97055.16
2024-01-04T21:46:07.392Z,97052.00
2024-01-04T21:48:35.038Z,97056.91
2024-01-04T21:51:02.431Z,97054.44
2024-01-04T21:53:29.629Z,97048.28
2024-01-04T21:55:57.205Z,97048.06
2024-01-04T21:58:24.435Z,97039.94
2024-01-04T22:00:51.745Z,97035.50
2024-01-04T22:03:19.227Z,97037.97
2024-01-04T22:05:46.567Z,97037.47
2024-01-04T22:08:13.833Z,97050.47
2024-01-04T22:10:40.994Z,97043.34
2024-01-04T22:13:08.672Z,97048.00
2024-01-04T22:15:35.905Z,97035.72
2024-01-04T22:18:05.866Z,97038.88
2024-01-04T22:20:33.072Z,97034.94
2024-01-04T22:23:00.236Z,97042.06
2024-01-04T22:25:27.429Z,97038.88
2024-01-04T22:27:54.550Z,97039.84
2024-01-04T22:30:21.700Z,97034.19
2024-01-04T22:32:49.853Z,97034.41
2024-01-04T22:35:19.120Z,97025.28
2024-01-04T22:37:46.320Z,97036.84
2024-01-04T22:40:13.615Z,97032.44
2024-01-04T22:42:40.821Z,97025.03
2024-01-04T22:45:08.322Z,97025.78
2024-01-04T22:47:35.846Z,97033.63
2024-01-04T22:50:03.093Z,97032.16
2024-01-04T22:52:30.196Z,97024.81
2024-01-04T22:54:57.709Z,97033.47
2024-01-04T22:57:25.802Z,97035.66
2024-01-04T22:59:54.703Z,97037.91
2024-01-04T23:02:23.190Z,97031.28
2024-01-04T23:04:50.327Z,97028.28
2024-01-04T23:07:17.640Z,97036.16
2024-01-04T23:09:45.058Z,97028.50
2024-01-04T23:12:12.306Z,97027.03
2024-01-04T23:14:39.728Z,97027.75
2024-01-04T23:17:06.802Z,97026.75
2024-01-04T23:19:34.046Z,97032.44
2024-01-04T23:22:01.277Z,97037.56
2024-01-04T23:24:28.444Z,97035.34
2024-01-04T23:26:55.727Z,97035.06
2024-01-04T23:29:22.865Z,97039.47
2024-01-04T23:31:50.090Z,97046.84
2024-01-04T23:34:17.710Z,97041.88
2024-01-04T23:36:45.632Z,97041.63
2024-01-04T23:39:13.090Z,97044.06
2024-01-04T23:41:41.748Z,97031.53
2024-01-04T23:44:08.919Z,97042.06
2024-01-04T23:46:36.179Z,97029.25
2024-01-04T23:49:05.605Z,97019.13
2024-01-04T23:51:35.143Z,97022.50
2024-01-04T23:54:02.358Z,97025.41
2024-01-04T23:56:29.462Z,97031.53
2024-01-04T23:58:56.559Z,97025.56
